createdAt,value
2017-09-21T00:01:00.824Z,13.10
2017-09-21T00:03:28.255Z,13.10
2017-09-21T00:05:55.709Z,13.10
2017-09-21T00:08:23.159Z,13.10
2017-09-21T00:10:50.618Z,13.10
2017-09-21T00:13:18.053Z,13.20
2017-09-21T00:15:45.542Z,13.10
2017-09-21T00:18:12.995Z,13.10
2017-09-21T00:20:40.437Z,13.20
2017-09-21T00:23:07.883Z,13.20
2017-09-21T00:25:35.334Z,13.20
2017-09-21T00:28:02.840Z,13.20
2017-09-21T00:30:30.278Z,13.20
2017-09-21T00:32:57.741Z,13.30
2017-09-21T00:35:25.308Z,13.30
2017-09-21T00:37:52.887Z,13.30
2017-09-21T00:40:20.315Z,13.30
2017-09-21T00:42:47.782Z,13.40
2017-09-21T00:45:15.230Z,13.40
2017-09-21T00:47:42.685Z,13.30
2017-09-21T00:50:10.146Z,13.30
2017-09-21T00:52:37.596Z,13.40
2017-09-21T00:55:05.053Z,13.40
2017-09-21T00:57:32.501Z,13.40
2017-09-21T00:59:59.934Z,13.40
2017-09-21T01:02:27.422Z,13.40
2017-09-21T01:04:54.877Z,13.40
2017-09-21T01:07:22.314Z,13.30
2017-09-21T01:09:49.754Z,13.30
2017-09-21T01:12:17.239Z,13.30
2017-09-21T01:14:44.681Z,13.30
2017-09-21T01:17:12.122Z,13.30
2017-09-21T01:19:39.562Z,13.30
2017-09-21T01:22:07.789Z,13.40
2017-09-21T01:24:35.215Z,13.30
2017-09-21T01:27:02.698Z,13.30
2017-09-21T01:29:30.146Z,13.40
2017-09-21T01:31:59.466Z,13.30
2017-09-21T01:34:26.906Z,13.30
2017-09-21T01:36:54.355Z,13.30
2017-09-21T01:39:21.790Z,13.30
2017-09-21T01:41:49.224Z,13.30
2017-09-21T01:44:17.442Z,13.20
2017-09-21T01:46:44.879Z,13.20
2017-09-21T01:49:12.321Z,13.30
2017-09-21T01:51:40.538Z,13.20
2017-09-21T01:54:07.974Z,13.20
2017-09-21T01:56:35.419Z,13.20
2017-09-21T01:59:02.866Z,13.10
2017-09-21T02:01:30.297Z,13.10
2017-09-21T02:03:59.351Z,13.10
2017-09-21T02:06:26.781Z,13.10
2017-09-21T02:08:54.218Z,13.10
2017-09-21T02:11:22.431Z,13.10
2017-09-21T02:13:49.875Z,13.10
2017-09-21T02:16:17.306Z,13.10
2017-09-21T02:18:44.811Z,13.10
2017-09-21T02:21:12.244Z,13.10
2017-09-21T02:23:39.678Z,13.10
2017-09-21T02:26:07.127Z,13.20
2017-09-21T02:28:35.328Z,13.10
2017-09-21T02:31:02.795Z,13.00
2017-09-21T02:33:30.214Z,13.10
2017-09-21T02:35:57.662Z,13.10
2017-09-21T02:38:25.900Z,13.10
2017-09-21T02:40:53.334Z,13.10
2017-09-21T02:43:20.783Z,13.10
2017-09-21T02:45:48.370Z,13.10
2017-09-21T02:48:15.821Z,13.10
2017-09-21T02:50:43.260Z,13.00
2017-09-21T02:53:10.700Z,13.00
2017-09-21T02:55:38.142Z,13.10
2017-09-21T02:58:06.356Z,13.10
2017-09-21T03:00:33.825Z,13.00
2017-09-21T03:03:01.269Z,13.10
2017-09-21T03:05:28.746Z,13.10
2017-09-21T03:07:56.197Z,13.10
2017-09-21T03:10:23.692Z,13.10
2017-09-21T03:12:51.896Z,13.20
2017-09-21T03:15:19.350Z,13.10
2017-09-21T03:17:46.786Z,13.20
2017-09-21T03:20:14.221Z,13.20
2017-09-21T03:22:41.662Z,13.20
2017-09-21T03:25:09.108Z,13.20
2017-09-21T03:27:36.553Z,13.10
2017-09-21T03:30:04.020Z,13.20
2017-09-21T03:32:31.461Z,13.20
2017-09-21T03:34:58.917Z,13.30
2017-09-21T03:37:26.368Z,13.30
2017-09-21T03:39:53.794Z,13.30
2017-09-21T03:42:21.243Z,13.40
2017-09-21T03:44:49.463Z,13.40
2017-09-21T03:47:16.898Z,13.40
2017-09-21T03:49:44.398Z,13.50
2017-09-21T03:52:11.838Z,13.60
2017-09-21T03:54:39.286Z,13.60
2017-09-21T03:57:06.748Z,13.70
2017-09-21T03:59:34.190Z,13.60
2017-09-21T04:02:01.654Z,13.70
2017-09-21T04:04:29.091Z,13.80
2017-09-21T04:06:56.580Z,14.00
2017-09-21T04:09:24.021Z,14.00
2017-09-21T04:11:51.470Z,14.10
2017-09-21T04:14:18.940Z,14.30
2017-09-21T04:16:46.393Z,14.30
2017-09-21T04:19:13.826Z,14.20
2017-09-21T04:21:41.271Z,14.10
2017-09-21T04:24:08.716Z,14.20
2017-09-21T04:26:36.222Z,14.10
2017-09-21T04:29:03.670Z,14.00
2017-09-21T04:31:31.108Z,14.10
2017-09-21T04:33:59.298Z,14.20
2017-09-21T04:36:26.734Z,14.10
2017-09-21T04:38:54.184Z,14.10
2017-09-21T04:41:21.678Z,14.00
2017-09-21T04:43:49.136Z,14.00
2017-09-21T04:46:16.670Z,14.00
2017-09-21T04:48:44.122Z,14.10
2017-09-21T04:51:11.606Z,14.20
2017-09-21T04:53:39.051Z,14.10
2017-09-21T04:56:06.498Z,14.00
2017-09-21T04:58:33.974Z,14.00
2017-09-21T05:01:01.411Z,13.90
2017-09-21T05:03:28.850Z,13.90
2017-09-21T05:05:56.283Z,14.00
2017-09-21T05:08:24.494Z,13.90
2017-09-21T05:10:51.955Z,13.90
2017-09-21T05:13:19.815Z,14.00
2017-09-21T05:15:47.298Z,14.00
2017-09-21T05:18:14.729Z,14.00
2017-09-21T05:20:42.190Z,13.90
2017-09-21T05:23:09.688Z,13.90
2017-09-21T05:25:37.123Z,13.90
2017-09-21T05:28:04.598Z,13.90
2017-09-21T05:30:32.046Z,13.80
2017-09-21T05:32:59.544Z,13.90
2017-09-21T05:35:27.024Z,13.90
2017-09-21T05:37:54.471Z,13.80
2017-09-21T05:40:21.923Z,13.80
2017-09-21T05:42:49.419Z,13.90
2017-09-21T05:45:16.879Z,13.90
2017-09-21T05:47:44.335Z,14.00
2017-09-21T05:50:11.942Z,14.00
2017-09-21T05:52:39.375Z,14.00
2017-09-21T05:55:06.977Z,14.10
2017-09-21T05:57:35.962Z,14.20
2017-09-21T06:00:03.394Z,14.20
2017-09-21T06:02:30.849Z,14.20
2017-09-21T06:04:58.316Z,14.20
2017-09-21T06:07:25.767Z,14.30
2017-09-21T06:09:53.211Z,14.30
2017-09-21T06:12:20.639Z,14.20
2017-09-21T06:14:48.074Z,14.20
2017-09-21T06:17:15.512Z,14.30
2017-09-21T06:19:42.954Z,14.30
2017-09-21T06:22:10.415Z,14.30
2017-09-21T06:24:37.945Z,14.50
2017-09-21T06:27:05.368Z,14.50
2017-09-21T06:29:33.566Z,14.70
2017-09-21T06:32:00.998Z,14.70
2017-09-21T06:34:29.194Z,14.80
2017-09-21T06:36:56.682Z,14.70
2017-09-21T06:39:24.243Z,14.80
2017-09-21T06:41:51.701Z,14.80
2017-09-21T06:44:19.122Z,14.90
2017-09-21T06:46:46.582Z,15.00
2017-09-21T06:49:14.057Z,15.10
2017-09-21T06:51:41.495Z,15.20
2017-09-21T06:54:08.961Z,15.20
2017-09-21T06:56:36.491Z,15.10
2017-09-21T06:59:04.034Z,15.20
2017-09-21T07:01:31.537Z,15.30
2017-09-21T07:03:59.810Z,15.40
2017-09-21T07:06:27.351Z,15.40
2017-09-21T07:08:54.795Z,15.50
2017-09-21T07:11:22.439Z,15.70
2017-09-21T07:13:49.871Z,15.90
2017-09-21T07:16:17.299Z,16.00
2017-09-21T07:18:44.971Z,16.30
2017-09-21T07:21:12.397Z,16.50
2017-09-21T07:23:39.848Z,16.70
2017-09-21T07:26:07.291Z,16.80
2017-09-21T07:28:34.762Z,16.80
2017-09-21T07:31:02.202Z,16.80
2017-09-21T07:33:29.668Z,16.90
2017-09-21T07:35:57.106Z,16.80
2017-09-21T07:38:24.562Z,16.70
2017-09-21T07:40:51.998Z,16.60
2017-09-21T07:43:19.517Z,16.70
2017-09-21T07:45:46.946Z,16.80
2017-09-21T07:48:15.126Z,16.60
2017-09-21T07:50:42.567Z,16.60
2017-09-21T07:53:10.007Z,16.60
2017-09-21T07:55:37.572Z,16.70
2017-09-21T07:58:04.986Z,16.60
2017-09-21T08:00:33.199Z,16.40
2017-09-21T08:03:00.670Z,16.30
2017-09-21T08:05:28.229Z,16.20
2017-09-21T08:07:55.695Z,16.30
2017-09-21T08:10:23.148Z,16.20
2017-09-21T08:12:50.604Z,16.30
2017-09-21T08:15:18.041Z,16.30
2017-09-21T08:17:45.476Z,16.50
2017-09-21T08:20:12.985Z,16.70
2017-09-21T08:22:40.449Z,16.80
2017-09-21T08:25:07.880Z,16.70
2017-09-21T08:27:35.333Z,16.60
2017-09-21T08:30:02.772Z,16.50
2017-09-21T08:32:30.275Z,16.40
2017-09-21T08:34:57.821Z,16.50
2017-09-21T08:37:25.292Z,16.60
2017-09-21T08:39:52.734Z,16.60
2017-09-21T08:42:20.176Z,16.70
2017-09-21T08:44:47.614Z,16.70
2017-09-21T08:47:15.083Z,16.80
2017-09-21T08:49:42.542Z,16.80
2017-09-21T08:52:09.982Z,16.90
2017-09-21T08:54:37.431Z,16.90
2017-09-21T08:57:04.942Z,16.90
2017-09-21T08:59:32.582Z,16.80
2017-09-21T09:02:00.014Z,16.80
2017-09-21T09:04:27.486Z,16.90
2017-09-21T09:06:56.314Z,17.00
2017-09-21T09:09:24.518Z,16.90
2017-09-21T09:11:52.021Z,16.80
2017-09-21T09:14:19.543Z,16.90
2017-09-21T09:16:47.039Z,17.00
2017-09-21T09:19:14.484Z,17.00
2017-09-21T09:21:41.918Z,17.00
2017-09-21T09:24:09.388Z,17.00
2017-09-21T09:26:36.823Z,17.10
2017-09-21T09:29:04.280Z,16.90
2017-09-21T09:31:31.702Z,16.80
2017-09-21T09:33:59.922Z,16.90
2017-09-21T09:36:27.374Z,16.80
2017-09-21T09:38:54.909Z,17.00
2017-09-21T09:41:22.340Z,17.00
2017-09-21T09:43:49.778Z,17.00
2017-09-21T09:46:17.328Z,17.20
2017-09-21T09:48:44.779Z,17.10
2017-09-21T09:51:12.228Z,17.10
2017-09-21T09:53:39.690Z,17.20
2017-09-21T09:56:07.431Z,17.30
2017-09-21T09:58:34.900Z,17.40
2017-09-21T10:01:02.342Z,17.30
2017-09-21T10:03:29.826Z,17.20
2017-09-21T10:05:57.386Z,17.20
2017-09-21T10:08:24.833Z,17.40
2017-09-21T10:10:52.375Z,17.50
2017-09-21T10:13:19.814Z,17.60
2017-09-21T10:15:47.406Z,17.60
2017-09-21T10:18:14.915Z,17.60
2017-09-21T10:20:42.356Z,17.70
2017-09-21T10:23:10.557Z,17.80
2017-09-21T10:25:38.007Z,17.80
2017-09-21T10:28:05.442Z,17.90
2017-09-21T10:30:33.660Z,18.40
2017-09-21T10:33:01.132Z,18.30
2017-09-21T10:35:28.564Z,18.40
2017-09-21T10:37:56.065Z,18.30
2017-09-21T10:40:23.605Z,18.20
2017-09-21T10:42:51.051Z,18.20
2017-09-21T10:45:18.501Z,18.20
2017-09-21T10:47:45.985Z,18.20
2017-09-21T10:50:13.438Z,18.30
2017-09-21T10:52:40.889Z,18.40
2017-09-21T10:55:08.381Z,18.30
2017-09-21T10:57:35.988Z,18.30
2017-09-21T11:00:03.415Z,18.40
2017-09-21T11:02:30.866Z,18.60
2017-09-21T11:04:59.100Z,18.80
2017-09-21T11:07:26.546Z,18.70
2017-09-21T11:09:53.988Z,18.90
2017-09-21T11:12:21.457Z,19.10
2017-09-21T11:14:48.890Z,19.10
2017-09-21T11:17:16.361Z,19.00
2017-09-21T11:19:43.810Z,19.00
2017-09-21T11:22:11.287Z,18.20
2017-09-21T11:24:38.751Z,19.10
2017-09-21T11:27:06.308Z,19.10
2017-09-21T11:29:33.755Z,19.10
2017-09-21T11:32:01.226Z,19.00
2017-09-21T11:34:28.683Z,19.20
2017-09-21T11:36:56.116Z,19.00
2017-09-21T11:39:23.550Z,18.90
2017-09-21T11:41:51.003Z,18.80
2017-09-21T11:44:18.452Z,18.80
2017-09-21T11:46:46.668Z,18.80
2017-09-21T11:49:14.206Z,18.80
2017-09-21T11:51:41.632Z,18.90
2017-09-21T11:54:09.839Z,18.80
2017-09-21T11:56:37.319Z,18.80
2017-09-21T11:59:04.767Z,18.70
2017-09-21T12:01:33.074Z,18.70
2017-09-21T12:04:00.548Z,18.70
2017-09-21T12:06:28.759Z,18.80
2017-09-21T12:08:56.227Z,18.70
2017-09-21T12:11:23.666Z,18.70
2017-09-21T12:13:51.114Z,18.80
2017-09-21T12:16:18.603Z,18.80
2017-09-21T12:18:46.059Z,18.70
2017-09-21T12:21:13.520Z,18.60
2017-09-21T12:23:40.961Z,18.60
2017-09-21T12:26:08.477Z,18.60
2017-09-21T12:28:36.681Z,18.80
2017-09-21T12:31:04.139Z,18.70
2017-09-21T12:33:31.580Z,18.80
2017-09-21T12:35:59.027Z,18.80
2017-09-21T12:38:26.557Z,18.90
2017-09-21T12:40:54.017Z,19.00
2017-09-21T12:43:22.261Z,19.10
2017-09-21T12:45:49.799Z,19.00
2017-09-21T12:48:17.275Z,19.20
2017-09-21T12:50:44.727Z,19.30
2017-09-21T12:53:12.188Z,19.50
2017-09-21T12:55:39.655Z,19.60
2017-09-21T12:58:07.107Z,19.70
2017-09-21T13:00:34.546Z,19.70
2017-09-21T13:03:01.988Z,19.80
2017-09-21T13:05:29.446Z,20.00
2017-09-21T13:07:56.880Z,20.00
2017-09-21T13:10:24.466Z,20.10
2017-09-21T13:12:51.924Z,20.00
2017-09-21T13:15:19.368Z,20.00
2017-09-21T13:17:46.859Z,20.00
2017-09-21T13:20:14.312Z,20.00
2017-09-21T13:22:41.860Z,20.10
2017-09-21T13:25:09.850Z,20.30
2017-09-21T13:27:37.299Z,20.60
2017-09-21T13:30:04.767Z,20.80
2017-09-21T13:32:32.367Z,20.90
2017-09-21T13:34:59.811Z,21.20
2017-09-21T13:37:28.039Z,21.20
2017-09-21T13:39:55.554Z,21.10
2017-09-21T13:42:23.028Z,20.90
2017-09-21T13:44:50.479Z,20.60
2017-09-21T13:47:17.941Z,20.50
2017-09-21T13:49:45.379Z,20.20
2017-09-21T13:52:12.827Z,19.90
2017-09-21T13:54:41.055Z,19.90
2017-09-21T13:57:08.764Z,19.90
2017-09-21T13:59:36.996Z,20.00
2017-09-21T14:02:04.483Z,20.00
2017-09-21T14:04:32.084Z,19.80
2017-09-21T14:06:59.507Z,19.80
2017-09-21T14:09:27.854Z,19.50
2017-09-21T14:11:55.312Z,19.50
2017-09-21T14:14:22.830Z,19.50
2017-09-21T14:16:50.418Z,19.50
2017-09-21T14:19:17.979Z,19.30
2017-09-21T14:21:45.524Z,19.30
2017-09-21T14:24:12.971Z,19.30
2017-09-21T14:26:40.417Z,19.40
2017-09-21T14:29:07.874Z,19.40
2017-09-21T14:31:35.472Z,19.50
2017-09-21T14:34:02.920Z,19.50
2017-09-21T14:36:30.479Z,19.50
2017-09-21T14:38:57.917Z,19.30
2017-09-21T14:41:25.380Z,19.20
2017-09-21T14:43:52.865Z,19.20
2017-09-21T14:46:20.310Z,19.20
2017-09-21T14:48:47.754Z,19.20
2017-09-21T14:51:15.198Z,19.30
2017-09-21T14:53:42.670Z,19.20
2017-09-21T14:56:10.204Z,19.20
2017-09-21T14:58:37.656Z,19.30
2017-09-21T15:01:05.288Z,19.30
2017-09-21T15:03:32.758Z,19.30
2017-09-21T15:06:00.208Z,19.30
2017-09-21T15:08:27.636Z,19.20
2017-09-21T15:10:55.111Z,19.20
2017-09-21T15:13:22.588Z,19.10
2017-09-21T15:15:50.055Z,19.00
2017-09-21T15:18:17.536Z,18.90
2017-09-21T15:20:45.179Z,18.90
2017-09-21T15:23:12.905Z,18.90
2017-09-21T15:25:40.361Z,18.90
2017-09-21T15:28:07.883Z,18.90
2017-09-21T15:30:35.328Z,18.90
2017-09-21T15:33:02.788Z,18.80
2017-09-21T15:35:31.010Z,18.60
2017-09-21T15:37:58.492Z,18.50
2017-09-21T15:40:25.937Z,18.50
2017-09-21T15:42:53.437Z,18.50
2017-09-21T15:45:20.897Z,18.50
2017-09-21T15:47:48.515Z,18.50
2017-09-21T15:50:15.974Z,18.50
2017-09-21T15:52:43.522Z,18.60
2017-09-21T15:55:10.959Z,18.50
2017-09-21T15:57:38.486Z,18.50
2017-09-21T16:00:06.743Z,18.60
2017-09-21T16:02:34.186Z,18.60
2017-09-21T16:05:01.758Z,18.60
2017-09-21T16:07:29.287Z,18.60
2017-09-21T16:09:56.738Z,18.50
2017-09-21T16:12:24.195Z,18.50
2017-09-21T16:14:51.766Z,18.40
2017-09-21T16:17:19.240Z,18.50
2017-09-21T16:19:46.754Z,18.40
2017-09-21T16:22:14.176Z,18.50
2017-09-21T16:24:42.414Z,18.50
2017-09-21T16:27:09.873Z,18.50
2017-09-21T16:29:37.372Z,18.50
2017-09-21T16:32:05.711Z,18.40
2017-09-21T16:34:33.147Z,18.30
2017-09-21T16:37:00.683Z,18.40
2017-09-21T16:39:28.644Z,18.30
2017-09-21T16:41:56.150Z,18.10
2017-09-21T16:44:23.598Z,18.30
2017-09-21T16:46:51.262Z,18.20
2017-09-21T16:49:18.913Z,18.30
2017-09-21T16:51:46.375Z,18.30
2017-09-21T16:54:13.819Z,18.20
2017-09-21T16:56:41.267Z,18.20
2017-09-21T16:59:08.704Z,18.20
2017-09-21T17:01:36.199Z,18.10
2017-09-21T17:04:03.656Z,18.00
2017-09-21T17:06:31.131Z,17.90
2017-09-21T17:08:58.658Z,17.80
2017-09-21T17:11:26.086Z,17.70
2017-09-21T17:13:53.555Z,17.80
2017-09-21T17:16:20.999Z,17.80
2017-09-21T17:18:48.437Z,17.80
2017-09-21T17:21:16.642Z,18.00
2017-09-21T17:23:44.129Z,17.90
2017-09-21T17:26:12.116Z,17.90
2017-09-21T17:28:39.624Z,17.90
2017-09-21T17:31:07.309Z,17.90
2017-09-21T17:33:34.864Z,17.90
2017-09-21T17:38:52.843Z,17.90
2017-09-21T17:41:20.361Z,18.00
2017-09-21T17:43:47.792Z,18.20
2017-09-21T17:46:15.219Z,18.30
2017-09-21T17:48:42.693Z,18.30
2017-09-21T17:51:13.155Z,18.40
2017-09-21T17:53:40.629Z,18.40
2017-09-21T17:56:08.106Z,18.40
2017-09-21T17:58:35.574Z,18.50
2017-09-21T18:01:03.107Z,18.50
2017-09-21T18:03:30.549Z,18.30
2017-09-21T18:05:57.998Z,18.20
2017-09-21T18:08:25.478Z,18.20
2017-09-21T18:10:52.921Z,18.10
2017-09-21T18:13:20.503Z,18.10
2017-09-21T18:15:48.010Z,18.20
2017-09-21T18:18:15.513Z,18.20
2017-09-21T18:20:42.955Z,18.20
2017-09-21T18:23:10.402Z,18.30
2017-09-21T18:25:37.883Z,18.30
2017-09-21T18:28:05.324Z,18.20
2017-09-21T18:30:32.781Z,18.30
2017-09-21T18:33:00.231Z,18.30
2017-09-21T18:35:27.675Z,18.30
2017-09-21T18:37:55.130Z,18.30
2017-09-21T18:40:22.604Z,18.20
2017-09-21T18:42:50.134Z,18.20
2017-09-21T18:45:17.615Z,18.20
2017-09-21T18:47:45.062Z,18.20
2017-09-21T18:50:12.510Z,18.20
2017-09-21T18:52:39.951Z,18.30
2017-09-21T18:55:07.456Z,18.20
2017-09-21T18:57:34.990Z,18.20
2017-09-21T19:00:02.418Z,18.10
2017-09-21T19:02:29.863Z,18.00
2017-09-21T19:04:58.090Z,17.90
2017-09-21T19:07:25.569Z,17.90
2017-09-21T19:09:53.007Z,17.60
2017-09-21T19:12:20.450Z,17.50
2017-09-21T19:14:47.892Z,17.60
2017-09-21T19:17:15.451Z,17.70
2017-09-21T19:19:42.875Z,17.90
2017-09-21T19:22:11.284Z,17.90
2017-09-21T19:24:38.758Z,17.90
2017-09-21T19:27:06.217Z,17.70
2017-09-21T19:29:33.703Z,17.60
2017-09-21T19:32:01.692Z,17.50
2017-09-21T19:34:29.914Z,17.40
2017-09-21T19:36:57.370Z,17.40
2017-09-21T19:39:24.853Z,17.50
2017-09-21T19:41:52.389Z,17.40
2017-09-21T19:44:19.835Z,17.40
2017-09-21T19:46:47.274Z,17.60
2017-09-21T19:49:14.811Z,17.80
2017-09-21T19:51:43.030Z,17.90
2017-09-21T19:54:10.494Z,17.90
2017-09-21T19:56:37.955Z,17.90
2017-09-21T19:59:05.435Z,18.00
2017-09-21T20:01:32.961Z,18.00
2017-09-21T20:04:00.420Z,17.90
2017-09-21T20:06:27.853Z,17.80
2017-09-21T20:08:55.722Z,17.70
2017-09-21T20:11:23.225Z,17.60
2017-09-21T20:13:50.840Z,17.60
2017-09-21T20:16:18.303Z,17.60
2017-09-21T20:18:46.791Z,17.60
2017-09-21T20:21:14.255Z,17.70
2017-09-21T20:23:41.701Z,17.80
2017-09-21T20:26:09.138Z,17.90
2017-09-21T20:28:36.587Z,18.00
2017-09-21T20:31:04.028Z,18.00
2017-09-21T20:33:32.224Z,18.00
2017-09-21T20:35:59.669Z,18.00
2017-09-21T20:38:27.098Z,17.90
2017-09-21T20:40:55.349Z,17.60
2017-09-21T20:43:22.783Z,17.60
2017-09-21T20:45:50.246Z,17.60
2017-09-21T20:48:17.706Z,17.60
2017-09-21T20:50:45.160Z,17.50
2017-09-21T20:53:12.591Z,17.40
2017-09-21T20:55:40.064Z,17.30
2017-09-21T20:58:07.512Z,17.30
2017-09-21T21:00:34.959Z,17.30
2017-09-21T21:03:02.407Z,17.30
2017-09-21T21:05:29.894Z,17.20
2017-09-21T21:07:57.331Z,17.20
2017-09-21T21:10:24.811Z,17.20
2017-09-21T21:12:52.345Z,17.20
2017-09-21T21:15:19.772Z,17.10
2017-09-21T21:17:47.995Z,17.00
2017-09-21T21:20:15.455Z,16.90
2017-09-21T21:22:42.900Z,16.90
2017-09-21T21:25:10.341Z,16.90
2017-09-21T21:27:37.814Z,16.80
2017-09-21T21:30:05.269Z,16.90
2017-09-21T21:32:32.707Z,17.00
2017-09-21T21:35:00.159Z,17.10
2017-09-21T21:37:27.619Z,17.00
2017-09-21T21:39:55.052Z,16.80
2017-09-21T21:42:23.278Z,16.70
2017-09-21T21:44:50.734Z,16.70
2017-09-21T21:47:18.189Z,16.60
2017-09-21T21:49:45.626Z,16.60
2017-09-21T21:52:13.095Z,16.70
2017-09-21T21:54:40.534Z,16.80
2017-09-21T21:57:07.995Z,16.80
2017-09-21T21:59:35.466Z,16.80
2017-09-21T22:02:02.911Z,16.80
2017-09-21T22:04:30.379Z,16.80
2017-09-21T22:06:57.851Z,16.90
2017-09-21T22:09:25.274Z,16.90
2017-09-21T22:11:52.734Z,17.00
2017-09-21T22:14:20.175Z,17.10
2017-09-21T22:16:47.634Z,17.10
2017-09-21T22:19:15.070Z,17.20
2017-09-21T22:21:42.573Z,17.20
2017-09-21T22:24:10.014Z,17.30
2017-09-21T22:26:37.486Z,17.20
2017-09-21T22:29:04.942Z,17.30
2017-09-21T22:31:32.395Z,17.40
2017-09-21T22:33:59.858Z,17.40
2017-09-21T22:36:27.303Z,17.10
2017-09-21T22:38:54.753Z,16.90
2017-09-21T22:41:22.223Z,16.60
2017-09-21T22:43:49.682Z,16.50
2017-09-21T22:46:17.121Z,16.60
2017-09-21T22:48:44.574Z,16.70
2017-09-21T22:51:12.002Z,16.70
2017-09-21T22:53:39.521Z,16.70
2017-09-21T22:56:06.958Z,16.90
2017-09-21T22:58:34.398Z,17.00
2017-09-21T23:01:01.843Z,17.00
2017-09-21T23:03:29.278Z,16.80
2017-09-21T23:05:57.518Z,17.00
2017-09-21T23:08:24.961Z,16.90
2017-09-21T23:10:53.182Z,17.10
2017-09-21T23:13:21.390Z,17.20
2017-09-21T23:15:48.866Z,17.10
2017-09-21T23:18:16.306Z,17.30
2017-09-21T23:20:43.748Z,17.30
2017-09-21T23:23:11.251Z,17.40
2017-09-21T23:25:38.696Z,17.40
2017-09-21T23:28:06.127Z,17.40
2017-09-21T23:30:33.590Z,17.40
2017-09-21T23:33:01.025Z,17.40
2017-09-21T23:35:28.479Z,17.30
2017-09-21T23:37:56.027Z,17.30
2017-09-21T23:40:23.463Z,17.20
2017-09-21T23:42:51.683Z,17.30
2017-09-21T23:45:19.114Z,17.30
2017-09-21T23:47:46.575Z,17.30
2017-09-21T23:50:14.021Z,17.40
2017-09-21T23:52:42.265Z,17.40
2017-09-21T23:55:09.906Z,17.30
2017-09-21T23:57:37.348Z,17.40
